Time;durP1;ratioP1;P1;durP2;ratioP2;P2;SDS_P1;SDS_P2;PMS_P1;PMS_P2;Temp;Humidity;BMP_temperature;BMP_pressure;BME280_temperature;BME280_humidity;BME280_pressure;Samples;Min_cycle;Max_cycle;Signal;HPM_P1;HPM_P2
2024/01/17 00:00:10;;;;;;;3.13;2.85;;;;;;;1.93;86.04;99383.66;4928041;28;20058;-78
2024/01/17 00:02:38;;;;;;;3.60;2.17;;;;;;;1.98;85.97;99388.75;4928852;28;20022;-77
2024/01/17 00:05:04;;;;;;;1.10;1.10;;;;;;;1.85;86.66;99381.88;4935371;28;20050;-78
2024/01/17 00:07:29;;;;;;;1.25;1.23;;;;;;;1.90;85.85;99381.66;4947832;28;20037;-78
2024/01/17 00:09:55;;;;;;;2.50;2.17;;;;;;;2.00;85.90;99372.50;4962640;28;20035;-77
2024/01/17 00:12:20;;;;;;;2.45;1.52;;;;;;;2.01;84.50;99369.53;4956198;28;20039;-77
2024/01/17 00:14:46;;;;;;;3.13;1.90;;;;;;;1.86;84.88;99364.84;4953581;28;20042;-78
2024/01/17 00:17:12;;;;;;;1.63;1.52;;;;;;;1.85;85.01;99355.34;4959413;28;20038;-77
2024/01/17 00:19:37;;;;;;;2.58;1.98;;;;;;;1.91;84.99;99361.22;4948082;28;20708;-77
2024/01/17 00:22:03;;;;;;;2.88;2.30;;;;;;;1.82;85.55;99353.34;4928093;28;20036;-77
2024/01/17 00:24:28;;;;;;;1.15;1.05;;;;;;;1.60;84.84;99354.53;4947232;28;20031;-77
2024/01/17 00:26:54;;;;;;;1.67;1.50;;;;;;;1.70;85.19;99364.69;4951318;28;20050;-78
2024/01/17 00:29:20;;;;;;;1.55;1.45;;;;;;;1.72;85.24;99364.38;4951500;28;20578;-77
2024/01/17 00:31:45;;;;;;;5.35;3.45;;;;;;;1.85;84.83;99355.34;4944890;28;20030;-77
2024/01/17 00:34:10;;;;;;;3.92;1.92;;;;;;;1.86;84.14;99345.50;4965928;28;20090;-77
2024/01/17 00:36:36;;;;;;;4.93;2.30;;;;;;;1.76;84.98;99342.16;4958783;28;20046;-77
2024/01/17 00:39:01;;;;;;;4.38;2.40;;;;;;;1.72;84.29;99346.56;4961077;28;20438;-78
2024/01/17 00:41:27;;;;;;;4.75;2.95;;;;;;;1.56;84.87;99343.00;4964845;28;20110;-77
2024/01/17 00:43:52;;;;;;;2.03;1.88;;;;;;;1.55;85.03;99333.50;4933333;28;20023;-78
2024/01/17 00:46:18;;;;;;;1.70;1.60;;;;;;;1.52;85.33;99336.81;4947804;28;20042;-77
2024/01/17 00:48:43;;;;;;;2.03;1.42;;;;;;;1.60;85.92;99327.22;4948126;28;20059;-76
2024/01/17 00:51:09;;;;;;;3.38;2.13;;;;;;;1.62;85.14;99325.00;4950289;28;21140;-77
2024/01/17 00:53:34;;;;;;;2.65;2.38;;;;;;;1.71;84.53;99307.13;4956238;28;20041;-77
2024/01/17 00:56:00;;;;;;;1.75;1.15;;;;;;;1.66;84.51;99313.44;4966401;28;20033;-77
2024/01/17 00:58:27;;;;;;;4.07;1.55;;;;;;;1.70;83.71;99319.59;4955534;28;20089;-77
2024/01/17 01:00:52;;;;;;;4.78;2.72;;;;;;;1.51;84.23;99313.28;4944033;28;20113;-77
2024/01/17 01:03:18;;;;;;;1.83;1.58;;;;;;;1.56;84.62;99307.75;4942317;28;20030;-76
2024/01/17 01:05:43;;;;;;;2.58;1.88;;;;;;;1.52;84.24;99299.69;4960832;28;20058;-77
2024/01/17 01:08:09;;;;;;;2.53;2.33;;;;;;;1.54;84.09;99302.00;4951981;28;20027;-76
2024/01/17 01:10:34;;;;;;;3.28;2.28;;;;;;;1.60;84.21;99306.00;4946413;28;20031;-78
2024/01/17 01:12:59;;;;;;;2.38;1.73;;;;;;;1.55;84.38;99296.34;4938321;28;20396;-77
2024/01/17 02:34:03;;;;;;;1.63;1.50;;;;;;;1.94;82.04;99214.59;5178952;23;20060;-87
2024/01/17 02:36:29;;;;;;;1.98;1.25;;;;;;;1.89;82.68;99209.50;5008979;28;20164;-87
2024/01/17 02:38:54;;;;;;;1.40;1.35;;;;;;;1.86;82.23;99205.63;5015585;28;20133;-87
2024/01/17 02:41:20;;;;;;;3.88;1.98;;;;;;;1.81;82.65;99206.66;5020162;28;20481;-86
2024/01/17 02:43:45;;;;;;;1.13;1.13;;;;;;;1.83;82.77;99185.09;5017542;28;20053;-87
2024/01/17 02:46:11;;;;;;;2.13;1.08;;;;;;;1.75;82.97;99189.41;5004352;28;20494;-86
2024/01/17 02:48:37;;;;;;;1.35;1.27;;;;;;;1.88;81.96;99189.41;5007527;28;20441;-89
2024/01/17 02:51:02;;;;;;;17.10;1.95;;;;;;;1.89;82.36;99193.59;5007804;28;20025;-87
2024/01/17 02:53:28;;;;;;;2.10;1.40;;;;;;;1.90;81.63;99184.53;4990598;28;20094;-87
2024/01/17 02:55:53;;;;;;;4.00;2.40;;;;;;;1.77;82.14;99179.25;4989462;28;20038;-87
2024/01/17 02:58:19;;;;;;;4.63;1.42;;;;;;;1.57;81.98;99180.13;4987834;28;20026;-86
2024/01/17 03:00:44;;;;;;;2.30;2.08;;;;;;;1.83;82.16;99177.13;4993417;28;20075;-86
2024/01/17 03:03:10;;;;;;;4.07;2.17;;;;;;;1.68;81.48;99185.75;5027177;28;20037;-87
2024/01/17 03:05:37;;;;;;;2.70;1.65;;;;;;;1.70;81.90;99178.25;5004064;28;20040;-87
2024/01/17 03:08:06;;;;;;;1.70;1.60;;;;;;;1.75;81.68;99172.72;5024165;28;20502;-86
2024/01/17 03:10:31;;;;;;;4.82;1.98;;;;;;;1.69;82.27;99171.38;5024709;28;20032;-87
2024/01/17 03:12:57;;;;;;;3.55;1.95;;;;;;;1.72;82.11;99155.56;5026969;28;20025;-88
2024/01/17 03:15:23;;;;;;;2.53;2.33;;;;;;;1.67;81.44;99155.81;5004908;28;20034;-87
2024/01/17 03:17:52;;;;;;;4.57;2.45;;;;;;;1.73;81.08;99141.22;5019821;28;20030;-85
2024/01/17 03:20:17;;;;;;;2.00;1.23;;;;;;;1.73;81.69;99149.16;4998149;28;20114;-86
2024/01/17 03:22:43;;;;;;;3.47;1.88;;;;;;;1.76;80.97;99134.47;5016612;28;20057;-87
2024/01/17 03:25:08;;;;;;;2.45;1.63;;;;;;;1.71;81.08;99132.03;5018049;28;20529;-86
2024/01/17 03:27:35;;;;;;;3.60;2.35;;;;;;;1.68;80.80;99125.50;5001991;28;20110;-87
2024/01/17 03:30:04;;;;;;;3.83;1.60;;;;;;;1.66;81.40;99111.84;5002060;28;20022;-88
2024/01/17 03:32:30;;;;;;;4.00;1.95;;;;;;;1.62;80.86;99108.31;4995239;28;20049;-87
2024/01/17 03:34:57;;;;;;;2.75;2.55;;;;;;;1.58;80.94;99111.94;4974594;28;20075;-86
2024/01/17 03:37:23;;;;;;;4.25;1.70;;;;;;;1.49;81.43;99112.03;4992182;28;20034;-88
2024/01/17 03:39:49;;;;;;;4.45;2.53;;;;;;;1.41;81.24;99099.69;4982395;28;20072;-86
2024/01/17 03:42:16;;;;;;;2.70;1.42;;;;;;;1.35;82.17;99102.91;4969156;28;20049;-86
2024/01/17 03:44:45;;;;;;;3.97;1.35;;;;;;;1.42;82.12;99095.16;4991900;28;20124;-86
2024/01/17 03:47:14;;;;;;;4.28;2.50;;;;;;;1.41;81.67;99086.44;4979961;28;20038;-86
2024/01/17 03:49:39;;;;;;;0.82;0.80;;;;;;;1.38;81.80;99087.09;4986823;28;20037;-85
2024/01/17 03:52:06;;;;;;;1.15;1.13;;;;;;;1.36;81.83;99084.00;4983426;28;20049;-84
2024/01/17 03:54:31;;;;;;;3.60;2.35;;;;;;;1.36;81.65;99075.25;5008491;28;20062;-84
2024/01/17 03:56:57;;;;;;;1.13;1.05;;;;;;;1.32;81.31;99067.22;5019661;28;20034;-87
2024/01/17 03:59:27;;;;;;;2.65;1.92;;;;;;;1.22;81.83;99057.03;5006971;28;20033;-87
2024/01/17 04:01:53;;;;;;;1.00;0.98;;;;;;;0.93;82.18;99059.91;5003302;28;20124;-87
2024/01/17 04:04:18;;;;;;;1.73;1.63;;;;;;;1.08;82.78;99061.16;5011668;28;20061;-86
2024/01/17 04:06:44;;;;;;;1.70;1.60;;;;;;;1.02;82.58;99052.66;4997538;28;20398;-86
2024/01/17 04:09:10;;;;;;;3.17;1.75;;;;;;;1.06;82.63;99053.53;5010678;28;20470;-87
2024/01/17 04:11:36;;;;;;;2.58;2.38;;;;;;;1.01;82.73;99047.69;5030467;28;20029;-86
2024/01/17 04:14:02;;;;;;;2.53;1.95;;;;;;;1.10;82.93;99051.78;5003155;28;20498;-86
2024/01/17 04:16:27;;;;;;;1.90;1.60;;;;;;;1.11;82.48;99033.97;4990958;28;20053;-86
2024/01/17 04:18:53;;;;;;;3.95;1.55;;;;;;;1.10;82.92;99033.22;5007877;28;20041;-87
2024/01/17 04:21:20;;;;;;;2.72;1.90;;;;;;;1.16;81.97;99033.78;5007655;28;20101;-86
2024/01/17 04:23:47;;;;;;;2.13;1.58;;;;;;;1.15;82.29;99017.09;5004691;28;20032;-90
2024/01/17 04:26:24;;;;;;;1.25;1.15;;;;;;;1.13;81.67;99021.94;5028638;28;20045;-86
2024/01/17 04:28:50;;;;;;;1.27;1.25;;;;;;;1.15;82.22;99013.66;5001054;28;20065;-87
2024/01/17 04:31:26;;;;;;;2.50;1.67;;;;;;;0.99;83.06;99007.50;4985160;28;20181;-87
2024/01/17 04:33:53;;;;;;;1.52;1.42;;;;;;;1.02;82.31;98998.88;5011984;28;20124;-86
2024/01/17 04:36:21;;;;;;;4.90;2.50;;;;;;;1.00;82.35;98990.50;5030989;28;20049;-86
2024/01/17 04:38:47;;;;;;;1.23;1.17;;;;;;;1.01;82.91;98986.75;4992415;28;20029;-87
2024/01/17 04:41:15;;;;;;;0.85;0.85;;;;;;;0.91;82.92;98988.72;5007523;28;20140;-85
2024/01/17 04:43:42;;;;;;;2.50;1.60;;;;;;;0.95;82.91;98986.19;5009025;28;20093;-85
2024/01/17 04:46:09;;;;;;;2.55;1.60;;;;;;;1.07;82.94;98986.19;4999230;28;20025;-85
2024/01/17 04:48:35;;;;;;;1.33;1.20;;;;;;;1.09;82.62;98973.38;5001266;28;20037;-86
2024/01/17 04:51:02;;;;;;;2.35;1.80;;;;;;;1.02;82.44;98978.47;5012260;28;20095;-87
2024/01/17 04:53:27;;;;;;;0.60;0.60;;;;;;;0.89;83.34;98980.34;5023778;28;20056;-86
2024/01/17 04:55:53;;;;;;;0.80;0.80;;;;;;;1.01;83.63;98968.97;5002528;28;20034;-86
2024/01/17 04:58:19;;;;;;;0.70;0.70;;;;;;;1.18;82.28;98957.34;5021331;28;20030;-85
2024/01/17 05:00:48;;;;;;;1.05;1.05;;;;;;;1.18;82.24;98958.09;5011428;28;20037;-86
2024/01/17 05:03:14;;;;;;;0.75;0.75;;;;;;;1.20;81.77;98963.09;5002955;28;20018;-86
2024/01/17 05:05:46;;;;;;;1.42;1.13;;;;;;;1.11;82.28;98949.97;4997743;28;20056;-86
2024/01/17 05:08:13;;;;;;;1.45;1.35;;;;;;;1.13;82.43;98953.06;5015368;28;20444;-86
2024/01/17 05:10:45;;;;;;;0.98;0.98;;;;;;;1.14;82.21;98945.88;4985065;28;20126;-86
2024/01/17 05:13:11;;;;;;;1.48;1.38;;;;;;;1.06;82.09;98952.84;5013828;28;20480;-86
2024/01/17 05:15:38;;;;;;;1.33;1.05;;;;;;;1.08;82.31;98942.69;4989300;28;20044;-85
2024/01/17 05:18:14;;;;;;;3.38;2.33;;;;;;;0.95;82.42;98935.84;4999360;28;20116;-86
2024/01/17 05:20:40;;;;;;;0.77;0.77;;;;;;;0.98;82.84;98919.28;4994483;28;20100;-88
2024/01/17 05:23:06;;;;;;;2.28;1.75;;;;;;;1.05;82.44;98919.50;4985269;28;20517;-86
2024/01/17 05:25:32;;;;;;;0.93;0.85;;;;;;;1.05;82.97;98908.91;5005777;28;20037;-86
2024/01/17 05:28:01;;;;;;;1.25;1.15;;;;;;;1.06;83.12;98905.16;5010961;28;20036;-86
2024/01/17 05:30:26;;;;;;;0.80;0.80;;;;;;;1.12;82.80;98906.47;5023382;28;20041;-86
2024/01/17 05:32:53;;;;;;;1.42;1.33;;;;;;;1.12;82.54;98892.44;5001355;28;20436;-86
2024/01/17 05:35:20;;;;;;;1.88;1.58;;;;;;;1.13;82.34;98905.34;4994655;28;20030;-87
2024/01/17 05:37:47;;;;;;;1.42;1.33;;;;;;;1.15;82.79;98892.53;4982569;28;20026;-86
2024/01/17 05:40:13;;;;;;;1.40;1.30;;;;;;;1.20;82.36;98894.19;4997274;28;20456;-82
2024/01/17 05:42:40;;;;;;;0.40;0.40;;;;;;;1.21;82.24;98901.00;5019486;28;20030;-82
2024/01/17 05:45:07;;;;;;;2.38;1.90;;;;;;;1.27;82.60;98884.56;5004103;28;20041;-87
2024/01/17 05:47:37;;;;;;;1.67;1.58;;;;;;;1.32;81.35;98883.53;4998281;28;20055;-83
2024/01/17 05:50:08;;;;;;;1.75;1.65;;;;;;;1.21;81.74;98875.28;5006047;28;20042;-81
2024/01/17 05:52:41;;;;;;;1.58;1.48;;;;;;;1.24;82.69;98874.59;4996029;28;20042;-81
2024/01/17 05:55:08;;;;;;;0.88;0.82;;;;;;;1.29;82.29;98869.09;4996149;28;20042;-83
2024/01/17 05:57:34;;;;;;;1.13;1.13;;;;;;;1.28;81.97;98880.78;5010067;28;20160;-80
2024/01/17 05:59:59;;;;;;;2.40;1.73;;;;;;;1.38;81.87;98859.09;5012967;28;20064;-83
2024/01/17 06:02:25;;;;;;;4.43;1.77;;;;;;;1.40;81.55;98854.22;4991996;28;20034;-82
2024/01/17 06:04:51;;;;;;;1.08;1.08;;;;;;;1.27;82.02;98859.91;4995273;28;20491;-81
2024/01/17 06:07:16;;;;;;;1.98;1.40;;;;;;;1.24;82.34;98852.66;4974188;28;20037;-80
2024/01/17 06:09:43;;;;;;;0.60;0.60;;;;;;;1.26;82.71;98853.84;4979989;28;20052;-81
2024/01/17 06:12:10;;;;;;;1.17;1.15;;;;;;;1.25;82.48;98838.28;4977056;28;20061;-80
2024/01/17 06:14:36;;;;;;;2.03;1.83;;;;;;;1.32;82.31;98827.84;4999041;28;20052;-85
2024/01/17 06:17:01;;;;;;;1.58;1.50;;;;;;;1.30;81.83;98827.44;5010504;28;20588;-83
2024/01/17 06:19:27;;;;;;;1.52;1.10;;;;;;;1.37;82.61;98831.06;5008067;28;20037;-86
2024/01/17 06:21:52;;;;;;;0.68;0.68;;;;;;;1.34;81.92;98821.13;5009842;28;20025;-84
2024/01/17 06:24:18;;;;;;;1.83;1.65;;;;;;;1.39;82.21;98828.84;5028593;28;20041;-84
2024/01/17 06:26:43;;;;;;;1.20;1.10;;;;;;;1.37;81.72;98819.69;5007024;28;20029;-84
2024/01/17 06:29:10;;;;;;;1.48;1.35;;;;;;;1.27;82.49;98826.25;5004148;28;20033;-84
2024/01/17 06:31:36;;;;;;;1.63;1.58;;;;;;;1.44;82.38;98817.19;4993626;28;20375;-85
2024/01/17 06:34:01;;;;;;;0.80;0.80;;;;;;;1.40;82.63;98809.16;5021045;28;20033;-84
2024/01/17 06:36:29;;;;;;;1.85;1.58;;;;;;;1.49;81.38;98806.38;5006118;28;20079;-87
2024/01/17 06:38:55;;;;;;;5.40;1.73;;;;;;;1.49;80.96;98790.47;4993735;28;20113;-86
2024/01/17 06:41:20;;;;;;;0.55;0.55;;;;;;;1.44;80.76;98793.34;4989692;28;20041;-86
2024/01/17 06:43:46;;;;;;;0.98;0.98;;;;;;;1.39;81.80;98793.59;5008247;28;20273;-85
2024/01/17 06:46:12;;;;;;;1.73;1.63;;;;;;;1.35;81.94;98784.78;5007016;28;20037;-86
2024/01/17 06:48:37;;;;;;;1.77;1.65;;;;;;;1.37;81.96;98793.16;5007340;28;20039;-86
2024/01/17 06:51:04;;;;;;;1.67;1.38;;;;;;;1.40;81.60;98782.66;5007622;28;20053;-86
2024/01/17 06:53:34;;;;;;;1.73;0.82;;;;;;;1.24;81.50;98773.91;4984552;28;20026;-85
2024/01/17 06:55:59;;;;;;;0.90;0.90;;;;;;;1.26;81.88;98786.84;4992392;28;20050;-85
2024/01/17 06:58:25;;;;;;;1.77;1.67;;;;;;;1.18;82.30;98769.94;4998195;28;20037;-85
2024/01/17 07:00:50;;;;;;;1.15;0.60;;;;;;;1.26;82.38;98776.22;5005059;28;20038;-85
2024/01/17 07:03:16;;;;;;;0.60;0.60;;;;;;;1.28;81.39;98780.06;4994174;28;20105;-85
2024/01/17 07:05:41;;;;;;;1.63;1.15;;;;;;;1.29;81.42;98775.53;4989140;28;20038;-85
2024/01/17 07:08:07;;;;;;;2.42;1.58;;;;;;;1.23;81.80;98785.63;5007311;28;20025;-88
2024/01/17 07:10:34;;;;;;;1.50;1.40;;;;;;;1.25;81.57;98770.16;5012603;28;20060;-86
2024/01/17 07:13:00;;;;;;;2.13;1.52;;;;;;;1.32;80.40;98775.63;5022346;28;20030;-87
2024/01/17 07:15:25;;;;;;;1.17;1.08;;;;;;;1.31;81.01;98775.97;4988934;28;20395;-85
2024/01/17 07:17:51;;;;;;;1.45;1.35;;;;;;;0.99;82.32;98759.22;5008881;28;20057;-85
2024/01/17 11:33:11;;;;;;;0.60;0.60;;;;;;;2.77;73.53;98474.16;5778863;22;20053;-79
2024/01/17 11:35:43;;;;;;;0.73;0.70;;;;;;;2.93;72.76;98471.38;4988392;28;20045;-75
2024/01/17 14:48:23;;;;;;;1.67;1.58;;;;;;;3.34;72.14;98263.00;5012536;28;20053;-81
2024/01/17 14:50:49;;;;;;;2.83;1.65;;;;;;;3.45;71.60;98266.53;4996781;28;20029;-82
2024/01/17 14:53:15;;;;;;;1.73;1.63;;;;;;;3.54;69.32;98259.78;5013292;28;20131;-82
2024/01/17 14:55:43;;;;;;;2.55;1.88;;;;;;;3.52;68.93;98256.72;4995921;28;20021;-81
2024/01/17 14:58:09;;;;;;;5.28;1.67;;;;;;;3.38;70.23;98248.63;5015485;28;20026;-82
2024/01/17 17:37:06;;;;;;;1.90;1.80;;;;;;;2.90;79.74;98201.81;4940898;28;20615;-80
2024/01/17 17:39:32;;;;;;;1.58;1.13;;;;;;;2.87;79.71;98217.72;4956437;28;21002;-80
2024/01/17 17:41:57;;;;;;;2.97;1.88;;;;;;;2.87;80.39;98197.22;4940897;28;20112;-80
2024/01/17 17:44:23;;;;;;;2.30;2.05;;;;;;;2.89;80.50;98216.22;4942532;28;20023;-78
2024/01/17 17:46:55;;;;;;;4.53;1.27;;;;;;;2.93;80.30;98202.97;4951930;28;20134;-79
2024/01/17 17:49:27;;;;;;;1.85;1.70;;;;;;;2.94;79.87;98205.28;4939289;28;20347;-79
2024/01/17 23:56:55;;;;;;;4.63;3.08;;;;;;;1.67;84.25;98320.34;5326181;22;20555;-90
2024/01/17 23:59:27;;;;;;;2.95;2.75;;;;;;;1.72;84.13;98325.34;4967063;28;20049;-90
